Time;durP1;ratioP1;P1;durP2;ratioP2;P2;SDS_P1;SDS_P2;PMS_P1;PMS_P2;Temp;Humidity;BMP_temperature;BMP_pressure;BME280_temperature;BME280_humidity;BME280_pressure;Samples;Min_cycle;Max_cycle;Signal;HPM_P1;HPM_P2
2021/04/07 00:00:29;;;;;;;4.38;2.28;;;0.00;75.00;;;-0.82;61.40;93958.94;5037555;28;20220;-86
2021/04/07 00:02:55;;;;;;;4.03;2.50;;;0.10;75.10;;;-0.72;61.56;93964.03;5054107;28;20216;-86
2021/04/07 00:05:37;;;;;;;4.78;2.70;;;0.10;75.10;;;-0.67;61.71;93961.84;5053295;28;20642;-85
2021/04/07 00:08:05;;;;;;;4.80;2.80;;;0.20;75.20;;;-0.56;61.70;93966.78;5037527;28;20224;-86
2021/04/07 00:10:35;;;;;;;2.92;2.42;;;0.30;75.30;;;-0.50;61.49;93960.19;5053786;28;20276;-85
2021/04/07 00:13:03;;;;;;;2.80;2.38;;;0.40;75.30;;;-0.41;61.42;93961.91;5053959;28;20231;-86
2021/04/07 00:15:30;;;;;;;3.63;3.00;;;0.50;75.40;;;-0.33;62.08;93967.13;5037661;28;20238;-85
2021/04/07 00:17:57;;;;;;;4.22;2.78;;;0.50;75.50;;;-0.27;61.70;93970.06;5053469;28;20281;-86
2021/04/07 00:20:27;;;;;;;4.10;2.80;;;0.60;75.40;;;-0.22;61.64;93960.94;5053973;28;20277;-86
2021/04/07 00:22:54;;;;;;;2.63;2.40;;;0.60;75.30;;;-0.13;61.42;93958.44;5036938;28;20720;-86
2021/04/07 00:25:23;;;;;;;4.20;2.83;;;0.70;75.30;;;-0.10;62.05;93955.53;5053612;28;20196;-86
2021/04/07 00:27:55;;;;;;;5.22;3.10;;;0.80;75.50;;;-0.05;62.11;93964.44;5020586;28;20212;-85
2021/04/07 00:30:26;;;;;;;3.45;3.03;;;0.80;75.50;;;-0.03;62.44;93953.97;5070056;28;20262;-86
2021/04/07 00:32:53;;;;;;;3.15;2.88;;;0.90;75.60;;;-0.03;63.05;93954.78;5053865;28;20218;-86
2021/04/07 00:35:21;;;;;;;5.00;3.45;;;1.00;75.70;;;0.01;63.03;93957.06;5053562;28;20728;-86
2021/04/07 00:37:48;;;;;;;4.45;3.40;;;1.00;75.80;;;0.01;63.57;93969.97;5036816;28;20220;-86
2021/04/07 00:40:16;;;;;;;4.35;3.67;;;1.10;76.20;;;0.01;64.38;93962.22;5036799;28;20253;-86
2021/04/07 00:42:46;;;;;;;4.90;3.30;;;1.10;76.50;;;0.01;64.07;93964.81;5053133;28;20220;-86
2021/04/07 00:45:13;;;;;;;6.85;3.78;;;1.10;76.50;;;-0.01;64.68;93947.72;5053507;28;20650;-86
2021/04/07 00:47:41;;;;;;;4.57;3.50;;;1.10;76.70;;;0.03;64.29;93953.38;5036499;28;20223;-86
2021/04/07 00:50:11;;;;;;;5.50;3.70;;;1.10;76.60;;;0.02;64.12;93951.75;5053222;28;20192;-86
2021/04/07 00:52:38;;;;;;;4.05;3.53;;;1.10;76.50;;;-0.01;64.75;93949.50;5020229;28;20212;-86
2021/04/07 00:55:12;;;;;;;5.13;3.55;;;1.20;76.70;;;-0.03;64.46;93949.63;5037543;28;20571;-85
2021/04/07 00:57:40;;;;;;;5.47;3.67;;;1.20;76.70;;;-0.07;65.43;93950.88;5053076;28;20219;-86
2021/04/07 01:00:10;;;;;;;5.68;3.70;;;1.10;76.90;;;-0.06;64.88;93954.25;5037069;28;20208;-86
2021/04/07 01:02:39;;;;;;;5.93;3.58;;;1.10;76.80;;;-0.07;65.21;93950.09;5053086;28;20216;-86
2021/04/07 01:05:08;;;;;;;6.72;3.70;;;1.10;77.00;;;-0.06;65.10;93955.09;5036339;28;20338;-86
2021/04/07 01:07:36;;;;;;;5.75;3.75;;;1.10;77.00;;;-0.04;65.15;93952.34;5019796;28;20645;-85
2021/04/07 01:10:08;;;;;;;5.53;3.60;;;1.10;77.10;;;-0.04;64.90;93950.59;5052578;28;20196;-86
2021/04/07 01:12:37;;;;;;;4.63;3.45;;;1.10;77.00;;;-0.03;64.53;93952.19;5036770;28;20236;-86
2021/04/07 01:15:06;;;;;;;5.05;3.75;;;1.10;76.80;;;-0.06;64.63;93960.25;5036372;28;20207;-85
2021/04/07 01:17:34;;;;;;;6.38;3.88;;;1.10;76.80;;;-0.10;64.87;93956.34;5052851;28;20227;-86
2021/04/07 01:20:06;;;;;;;4.10;3.60;;;1.10;76.90;;;-0.14;64.76;93969.69;5036211;28;20665;-85
2021/04/07 01:22:35;;;;;;;3.83;3.30;;;1.10;76.80;;;-0.18;64.50;93964.81;5036353;28;20223;-86
2021/04/07 01:25:08;;;;;;;5.40;3.60;;;1.00;76.50;;;-0.23;64.33;93959.31;5036134;28;20208;-85
2021/04/07 01:27:39;;;;;;;5.47;3.38;;;1.00;76.40;;;-0.32;64.84;93960.19;5052730;28;20219;-86
2021/04/07 01:30:15;;;;;;;5.03;3.60;;;1.00;76.60;;;-0.33;64.43;93968.88;5035409;28;20193;-86
2021/04/07 01:32:42;;;;;;;4.43;3.67;;;1.00;76.50;;;-0.45;65.41;93959.75;5069658;28;20215;-86
2021/04/07 01:35:13;;;;;;;4.95;3.40;;;0.90;76.50;;;-0.44;64.65;93975.09;5036416;28;20192;-86
2021/04/07 01:37:40;;;;;;;4.45;3.17;;;0.90;76.50;;;-0.46;64.42;93973.59;5052739;28;20230;-85
2021/04/07 01:40:13;;;;;;;4.35;3.50;;;0.90;76.40;;;-0.51;64.68;93969.69;5052711;28;20242;-85
2021/04/07 01:42:42;;;;;;;6.78;3.45;;;0.80;76.50;;;-0.53;64.33;93973.38;5035984;28;20238;-85
2021/04/07 01:45:10;;;;;;;4.53;3.35;;;0.80;76.30;;;-0.57;64.37;93969.50;5052179;28;20735;-86
2021/04/07 01:47:38;;;;;;;3.88;3.30;;;0.70;76.30;;;-0.60;64.06;93969.78;5019622;28;20215;-86
2021/04/07 01:50:07;;;;;;;5.47;3.47;;;0.70;76.20;;;-0.63;64.33;93972.63;5035990;28;20206;-85
2021/04/07 01:52:34;;;;;;;4.18;3.60;;;0.70;76.40;;;-0.63;64.40;93972.63;5052628;28;20235;-85
2021/04/07 01:55:02;;;;;;;4.68;3.20;;;0.60;76.40;;;-0.62;64.29;93963.94;5035701;28;20306;-85
2021/04/07 01:57:28;;;;;;;4.82;3.70;;;0.60;76.40;;;-0.63;64.87;93975.22;5052183;28;20713;-86
2021/04/07 01:59:55;;;;;;;3.47;3.10;;;0.60;76.60;;;-0.63;64.46;93967.47;5035664;28;20213;-85
2021/04/07 02:02:23;;;;;;;5.53;3.28;;;0.60;76.50;;;-0.64;64.31;93969.25;5036287;28;20220;-85
2021/04/07 02:04:50;;;;;;;4.63;3.28;;;0.60;76.50;;;-0.71;65.02;93971.63;5035669;28;20834;-86
2021/04/07 02:07:17;;;;;;;5.95;4.20;;;0.60;76.70;;;-0.69;65.07;93961.97;5069302;28;20216;-85
2021/04/07 02:09:44;;;;;;;5.60;3.80;;;0.60;76.90;;;-0.66;64.38;93968.59;5052416;28;20688;-85
2021/04/07 02:12:12;;;;;;;6.28;3.65;;;0.60;76.70;;;-0.63;64.37;93975.22;5052102;28;20223;-85
2021/04/07 02:14:39;;;;;;;7.05;4.30;;;0.50;76.70;;;-0.63;64.96;93975.22;5035596;28;20199;-85
2021/04/07 02:17:06;;;;;;;6.25;4.38;;;0.50;76.80;;;-0.66;65.24;93966.84;5035618;28;20269;-86
2021/04/07 02:19:35;;;;;;;7.50;4.35;;;0.60;77.00;;;-0.59;65.31;93979.13;5035403;28;20254;-85
2021/04/07 02:22:13;;;;;;;5.55;4.32;;;0.60;77.20;;;-0.61;65.28;93974.13;5035511;28;20222;-85
2021/04/07 02:24:46;;;;;;;6.40;4.05;;;0.60;77.40;;;-0.56;65.02;93976.25;5035847;28;20203;-85
2021/04/07 02:27:20;;;;;;;6.45;4.13;;;0.60;77.10;;;-0.54;65.11;93979.50;5035478;28;20237;-85
2021/04/07 02:29:53;;;;;;;6.22;4.07;;;0.60;77.20;;;-0.52;65.00;93978.38;5035345;28;20200;-85
2021/04/07 02:32:23;;;;;;;5.00;4.40;;;0.60;77.20;;;-0.50;64.89;93975.66;5051670;28;20231;-85
2021/04/07 02:34:51;;;;;;;5.50;4.10;;;0.60;77.20;;;-0.49;65.07;93974.69;5034910;28;20196;-85
2021/04/07 02:37:19;;;;;;;7.30;4.60;;;0.60;77.20;;;-0.51;64.91;93974.06;5051898;28;20212;-85
2021/04/07 02:39:47;;;;;;;7.55;4.10;;;0.60;77.10;;;-0.50;65.05;93985.97;5051693;28;20189;-86
2021/04/07 02:42:17;;;;;;;6.32;3.72;;;0.70;77.30;;;-0.49;64.91;93974.69;5055807;28;20216;-85
2021/04/07 02:44:43;;;;;;;7.03;4.35;;;0.60;77.10;;;-0.54;64.93;93975.16;5055731;28;20245;-86
2021/04/07 02:47:10;;;;;;;6.53;3.80;;;0.70;77.20;;;-0.51;64.36;93977.44;5038995;28;20224;-86
2021/04/07 02:49:37;;;;;;;5.90;4.15;;;0.70;76.80;;;-0.59;64.36;93976.56;5055567;28;20227;-86
2021/04/07 02:52:05;;;;;;;4.38;3.63;;;0.60;76.80;;;-0.57;64.49;93982.38;5039244;28;20235;-86
2021/04/07 02:54:32;;;;;;;6.22;3.45;;;0.70;76.70;;;-0.62;64.15;93974.25;5055432;28;20291;-85
2021/04/07 02:57:03;;;;;;;5.60;3.40;;;0.60;76.60;;;-0.60;63.97;93980.88;5038746;28;20219;-83
2021/04/07 02:59:30;;;;;;;5.00;3.45;;;0.60;76.50;;;-0.62;64.62;93979.41;5055131;28;20256;-85
2021/04/07 03:01:56;;;;;;;5.40;4.07;;;0.60;76.40;;;-0.67;63.73;93979.88;5038685;28;20277;-84
2021/04/07 03:04:24;;;;;;;5.43;3.90;;;0.50;76.30;;;-0.73;64.11;93986.41;5038979;28;20200;-85
2021/04/07 03:06:50;;;;;;;5.30;4.10;;;0.60;77.20;;;-0.78;63.97;93980.88;5055219;28;20231;-85
2021/04/07 03:09:17;;;;;;;6.60;3.90;;;0.50;76.30;;;-0.81;64.30;93992.28;5038869;28;20216;-85
2021/04/07 03:11:44;;;;;;;4.63;3.85;;;0.50;76.40;;;-0.82;64.14;93984.69;5071016;28;20236;-85
2021/04/07 03:14:11;;;;;;;6.70;4.07;;;0.50;76.40;;;-0.81;64.21;93991.47;5054891;28;20203;-85
2021/04/07 03:16:38;;;;;;;6.18;4.10;;;0.50;76.50;;;-0.83;64.34;94006.22;5053035;28;20515;-86
2021/04/07 03:19:05;;;;;;;6.40;4.38;;;0.40;76.50;;;-0.83;64.64;94001.09;5042828;28;20234;-85
2021/04/07 03:21:33;;;;;;;4.38;3.97;;;0.40;76.60;;;-0.83;64.65;94001.09;5027167;28;20247;-85
2021/04/07 03:23:59;;;;;;;5.32;3.88;;;0.40;76.60;;;-0.88;64.95;94001.53;5030200;28;20193;-84
2021/04/07 03:26:27;;;;;;;8.27;4.93;;;0.40;76.70;;;-0.85;65.02;94010.72;5034692;28;20244;-85
2021/04/07 03:28:55;;;;;;;6.22;4.57;;;0.40;77.00;;;-0.84;65.83;94002.88;5033915;28;20287;-85
2021/04/07 03:31:22;;;;;;;6.57;4.63;;;0.40;77.40;;;-0.76;65.67;94006.47;5050203;28;20748;-86
2021/04/07 03:33:49;;;;;;;6.57;4.85;;;0.40;77.50;;;-0.71;65.65;94015.41;5036442;28;20279;-85
2021/04/07 03:36:16;;;;;;;7.68;5.22;;;0.40;77.70;;;-0.65;65.88;94003.69;5035373;28;20192;-85
2021/04/07 03:38:43;;;;;;;6.35;4.53;;;0.40;77.70;;;-0.63;65.76;94006.94;5034645;28;20235;-85
2021/04/07 03:41:10;;;;;;;6.80;5.15;;;0.50;77.80;;;-0.58;65.49;94011.66;5018578;28;20280;-85
2021/04/07 03:43:37;;;;;;;7.78;5.50;;;0.50;77.70;;;-0.56;65.85;94004.56;5017906;28;20193;-85
2021/04/07 03:46:03;;;;;;;5.93;4.50;;;0.60;78.00;;;-0.55;65.82;94017.31;5033472;28;20261;-86
2021/04/07 03:48:32;;;;;;;6.15;4.78;;;0.60;78.10;;;-0.49;66.27;94021.06;5026925;28;20211;-85
2021/04/07 03:51:00;;;;;;;9.13;4.93;;;0.60;78.30;;;-0.42;66.23;94021.31;5046296;28;20291;-85
2021/04/07 03:53:28;;;;;;;6.15;4.50;;;0.60;78.30;;;-0.43;66.08;94009.38;5043456;28;20579;-85
2021/04/07 03:55:57;;;;;;;6.38;4.53;;;0.60;78.20;;;-0.31;66.04;94022.84;5052650;28;20215;-86
2021/04/07 03:58:24;;;;;;;6.75;4.40;;;0.70;78.50;;;-0.28;66.38;94032.84;5028332;28;20220;-86
2021/04/07 04:00:52;;;;;;;6.55;4.20;;;0.70;78.60;;;-0.25;66.47;94027.41;5042900;28;20655;-85
2021/04/07 04:03:22;;;;;;;7.13;4.45;;;0.80;78.60;;;-0.22;65.92;94038.25;5026683;28;20294;-86
2021/04/07 04:05:49;;;;;;;5.57;4.18;;;0.80;78.40;;;-0.19;65.83;94037.13;5058585;28;20255;-85
2021/04/07 04:08:17;;;;;;;5.82;4.22;;;0.80;78.20;;;-0.14;65.68;94040.06;5032912;28;20223;-86
2021/04/07 04:10:45;;;;;;;5.47;4.00;;;0.90;78.20;;;-0.10;65.79;94043.16;5032136;28;20186;-86
2021/04/07 04:13:12;;;;;;;4.72;4.03;;;0.90;78.30;;;-0.14;65.84;94034.13;5032027;28;20236;-86
2021/04/07 04:15:39;;;;;;;5.10;4.25;;;1.00;78.30;;;-0.02;65.84;94049.19;5031530;28;20196;-86
2021/04/07 04:18:07;;;;;;;7.72;4.65;;;1.00;78.30;;;0.01;65.81;94047.28;5015246;28;20221;-86
2021/04/07 04:20:35;;;;;;;6.45;4.55;;;1.00;78.30;;;0.01;65.47;94052.44;5031696;28;20225;-86
2021/04/07 04:23:02;;;;;;;4.88;4.13;;;1.00;78.30;;;0.03;65.51;94060.84;5031976;28;20240;-86
2021/04/07 04:25:29;;;;;;;6.18;4.65;;;1.10;78.10;;;0.02;65.77;94064.38;5016931;28;20701;-87
2021/04/07 04:27:56;;;;;;;5.93;4.57;;;1.10;78.10;;;-0.01;65.67;94060.34;5033481;28;20303;-87
2021/04/07 04:30:24;;;;;;;6.55;4.45;;;1.10;78.10;;;0.04;65.30;94067.59;5016928;28;20192;-87
2021/04/07 04:32:55;;;;;;;8.38;4.88;;;1.10;78.00;;;0.01;65.50;94067.91;5018533;28;20232;-87
2021/04/07 04:35:26;;;;;;;6.05;4.63;;;1.10;77.90;;;-0.02;65.42;94067.25;5017730;28;20197;-88
2021/04/07 04:37:53;;;;;;;5.85;4.20;;;1.10;77.80;;;-0.03;65.39;94081.09;5017251;28;20278;-87
2021/04/07 04:40:20;;;;;;;5.82;4.60;;;1.10;77.80;;;-0.03;65.44;94091.41;5032985;28;20188;-86
2021/04/07 04:42:48;;;;;;;5.75;4.20;;;1.10;77.70;;;-0.01;65.16;94093.84;5016749;28;20318;-87
2021/04/07 04:45:15;;;;;;;6.47;4.60;;;1.10;77.60;;;-0.11;65.54;94080.22;5033580;28;20207;-87
2021/04/07 04:47:42;;;;;;;7.38;4.80;;;1.10;77.70;;;-0.07;65.02;94084.94;5033364;28;20621;-87
2021/04/07 04:50:11;;;;;;;6.85;4.65;;;1.10;77.60;;;-0.13;64.51;94088.09;5016583;28;20200;-86
2021/04/07 04:52:38;;;;;;;7.40;5.15;;;1.10;77.50;;;-0.06;64.49;94111.50;5032924;28;20228;-85
2021/04/07 04:55:07;;;;;;;5.40;4.50;;;1.10;77.40;;;-0.11;64.58;94101.66;5016839;28;20196;-86
2021/04/07 04:57:35;;;;;;;8.40;4.85;;;1.00;77.20;;;-0.13;64.62;94108.72;5016687;28;20224;-85
2021/04/07 05:00:02;;;;;;;9.40;5.07;;;1.00;77.30;;;-0.12;64.74;94110.34;5031723;28;20255;-86
2021/04/07 05:02:29;;;;;;;8.30;5.85;;;1.00;77.40;;;-0.10;65.07;94116.13;5014441;28;20278;-86
2021/04/07 05:04:55;;;;;;;7.00;5.60;;;1.00;77.40;;;-0.08;64.24;94116.81;5014720;28;20196;-86
2021/04/07 05:07:22;;;;;;;7.72;5.50;;;1.00;77.30;;;-0.10;64.44;94116.13;5014701;28;20227;-87
2021/04/07 05:09:49;;;;;;;7.68;5.55;;;1.00;77.70;;;-0.12;64.46;94120.66;5014895;28;20204;-86
2021/04/07 05:12:16;;;;;;;6.32;5.43;;;1.00;77.10;;;-0.13;64.65;94124.19;5030852;28;20228;-86
2021/04/07 05:14:45;;;;;;;7.18;4.93;;;1.00;77.20;;;-0.13;64.23;94126.75;5015337;28;20201;-87
2021/04/07 05:17:11;;;;;;;5.43;4.05;;;1.00;77.10;;;-0.12;64.55;94125.81;5017198;28;20225;-86
2021/04/07 05:19:38;;;;;;;7.40;4.82;;;1.00;77.20;;;-0.09;64.46;94133.22;5033111;28;20711;-88
2021/04/07 05:22:05;;;;;;;7.53;5.05;;;1.00;78.00;;;-0.04;64.44;94131.06;5015738;28;20223;-86
2021/04/07 05:24:34;;;;;;;6.97;4.90;;;1.00;77.40;;;0.01;64.68;94132.38;5047869;28;20207;-89
2021/04/07 05:27:01;;;;;;;8.07;4.65;;;1.00;77.50;;;0.15;64.41;94137.03;5042991;28;20216;-88
2021/04/07 05:29:28;;;;;;;5.63;4.35;;;1.10;77.70;;;0.27;64.40;94143.56;5030305;28;20662;-88
2021/04/07 05:31:59;;;;;;;5.65;4.85;;;1.10;77.70;;;0.36;64.15;94144.44;5024338;28;20242;-88
2021/04/07 05:34:26;;;;;;;6.15;4.57;;;1.20;77.70;;;0.39;64.42;94145.91;5042712;28;20197;-87
2021/04/07 05:36:55;;;;;;;7.72;5.50;;;1.30;77.80;;;0.44;64.30;94154.84;5032153;28;20287;-88
2021/04/07 05:39:22;;;;;;;7.72;5.22;;;1.30;77.70;;;0.45;64.30;94148.72;5042697;28;20659;-87
2021/04/07 05:41:49;;;;;;;6.00;4.57;;;1.40;77.70;;;0.52;63.86;94156.66;5039821;28;20706;-88
2021/04/07 05:44:16;;;;;;;5.82;4.60;;;1.40;77.60;;;0.55;64.07;94153.81;5024395;28;20196;-87
2021/04/07 05:46:43;;;;;;;7.18;4.80;;;1.50;77.60;;;0.58;64.13;94165.59;5017490;28;20222;-87
2021/04/07 05:49:10;;;;;;;6.90;5.13;;;1.50;77.50;;;0.61;64.13;94166.13;5022638;28;20674;-88
2021/04/07 05:51:38;;;;;;;7.80;5.50;;;1.60;77.70;;;0.66;64.19;94177.75;5030946;28;20228;-87
2021/04/07 05:54:05;;;;;;;7.20;5.03;;;1.60;77.60;;;0.68;64.33;94175.84;5022506;28;20228;-89
2021/04/07 05:56:32;;;;;;;6.38;4.75;;;1.70;77.70;;;0.73;64.57;94182.19;5039917;28;20220;-88
2021/04/07 05:59:00;;;;;;;8.57;5.40;;;1.70;77.70;;;0.76;64.48;94170.75;5022759;28;20207;-88
2021/04/07 06:01:27;;;;;;;7.07;5.05;;;1.70;77.80;;;0.86;64.35;94186.16;5030363;28;20229;-87
2021/04/07 06:03:54;;;;;;;10.20;6.20;;;1.70;77.90;;;0.91;64.79;94197.63;5020992;28;20207;-88
2021/04/07 06:06:22;;;;;;;6.50;5.55;;;1.80;78.00;;;0.97;64.55;94191.06;5049723;28;20291;-87
2021/04/07 06:08:50;;;;;;;10.60;6.10;;;1.80;77.90;;;0.98;64.23;94186.69;5041139;28;20210;-86
2021/04/07 06:11:19;;;;;;;7.70;6.13;;;1.90;77.90;;;1.04;64.63;94196.41;5022707;28;20319;-87
2021/04/07 06:13:47;;;;;;;9.60;6.72;;;1.90;77.90;;;1.11;64.77;94203.44;5026205;28;20181;-87
2021/04/07 06:16:14;;;;;;;7.57;5.38;;;2.00;78.20;;;1.26;64.53;94205.47;5044373;28;20187;-88
2021/04/07 06:18:42;;;;;;;7.18;5.55;;;2.00;78.30;;;1.38;64.40;94201.66;5036828;28;20250;-86
2021/04/07 06:21:13;;;;;;;5.68;4.82;;;2.10;78.40;;;1.53;64.17;94196.72;5035807;28;20200;-86
2021/04/07 06:23:39;;;;;;;7.15;5.47;;;2.20;78.40;;;1.71;64.74;94216.50;5032553;28;20237;-86
2021/04/07 06:26:06;;;;;;;7.55;6.30;;;2.30;78.70;;;1.84;64.30;94198.00;5073093;28;20199;-87
2021/04/07 06:28:33;;;;;;;9.38;6.97;;;2.50;78.80;;;1.97;63.97;94210.50;5055675;28;20234;-85
2021/04/07 06:31:02;;;;;;;8.45;6.57;;;2.50;78.80;;;2.04;63.82;94207.13;5055892;28;20184;-87
2021/04/07 06:33:33;;;;;;;9.23;6.38;;;2.60;78.50;;;2.12;63.71;94205.53;5039660;28;20199;-86
2021/04/07 06:36:06;;;;;;;8.23;5.97;;;2.70;78.40;;;2.16;63.63;94214.59;5039423;28;20207;-86
2021/04/07 06:38:36;;;;;;;6.88;5.90;;;2.80;78.20;;;2.23;63.55;94216.41;5048162;28;20192;-87
2021/04/07 06:41:05;;;;;;;7.68;6.10;;;2.90;78.30;;;2.31;63.57;94212.22;5051998;28;20677;-87
2021/04/07 06:43:34;;;;;;;6.63;5.97;;;3.00;78.30;;;2.42;63.89;94213.66;5052620;28;20195;-84
2021/04/07 06:46:04;;;;;;;7.20;6.32;;;3.10;78.30;;;2.58;63.86;94223.28;5045714;28;20196;-86
2021/04/07 06:48:32;;;;;;;7.60;6.57;;;3.10;78.50;;;2.72;63.47;94222.63;5034464;28;20197;-86
2021/04/07 06:51:03;;;;;;;8.50;6.15;;;3.30;78.60;;;2.84;63.29;94216.16;5018714;28;20204;-86
2021/04/07 06:53:31;;;;;;;6.72;5.75;;;3.30;78.40;;;2.97;63.27;94220.06;5022276;28;20671;-85
2021/04/07 06:55:58;;;;;;;6.68;5.75;;;3.50;78.70;;;3.05;62.87;94222.63;5052266;28;20193;-86
2021/04/07 06:58:25;;;;;;;7.75;6.03;;;3.60;78.40;;;3.10;62.88;94219.56;5048058;28;20224;-85
2021/04/07 07:00:52;;;;;;;7.15;5.53;;;3.70;78.20;;;3.20;62.72;94226.19;5028013;28;20250;-85
2021/04/07 07:03:20;;;;;;;6.85;5.78;;;3.80;77.90;;;3.23;62.60;94226.84;5030241;28;20225;-86
2021/04/07 07:05:55;;;;;;;7.03;5.22;;;3.80;77.90;;;3.27;62.52;94220.34;5028283;28;20203;-86
2021/04/07 07:08:41;;;;;;;7.72;5.82;;;3.90;77.60;;;3.26;61.75;94231.69;5022421;28;20574;-86
2021/04/07 07:11:15;;;;;;;7.10;5.80;;;4.00;77.30;;;3.17;62.03;94223.13;5007025;28;20627;-86
2021/04/07 07:13:43;;;;;;;7.63;5.82;;;4.00;78.00;;;3.19;60.56;94231.53;5049698;28;20665;-87
2021/04/07 07:16:12;;;;;;;6.50;5.80;;;4.00;76.70;;;3.04;60.58;94227.00;5048066;28;20197;-87
2021/04/07 07:18:43;;;;;;;7.00;5.75;;;4.00;76.40;;;2.94;61.09;94234.16;5038462;28;20650;-87
2021/04/07 07:21:16;;;;;;;7.45;6.13;;;3.90;76.20;;;2.82;61.18;94225.88;5061058;28;20409;-86
2021/04/07 07:23:47;;;;;;;7.45;6.25;;;3.80;76.00;;;2.75;60.85;94232.66;5033061;28;20219;-86
2021/04/07 07:26:17;;;;;;;7.20;5.70;;;3.80;76.10;;;2.71;61.64;94219.22;5032258;28;20196;-83
2021/04/07 07:28:54;;;;;;;7.70;6.22;;;3.80;76.10;;;2.72;61.17;94230.38;5019084;28;20204;-85
2021/04/07 07:31:26;;;;;;;5.90;5.30;;;3.70;76.00;;;2.69;61.33;94225.53;5034665;28;20362;-85
2021/04/07 07:33:56;;;;;;;7.28;6.03;;;3.70;76.10;;;2.65;61.41;94224.22;5047353;28;20204;-84
2021/04/07 07:36:25;;;;;;;6.50;5.60;;;3.70;76.10;;;2.64;61.25;94248.53;5034180;28;20231;-84
2021/04/07 07:38:57;;;;;;;7.63;5.68;;;3.60;76.20;;;2.63;61.09;94247.69;5053855;28;20207;-83
2021/04/07 07:41:36;;;;;;;5.43;4.93;;;3.60;75.90;;;2.62;60.66;94248.66;5048320;28;20243;-84
2021/04/07 07:44:20;;;;;;;7.38;5.40;;;3.60;75.90;;;2.60;60.75;94247.19;5051400;28;20200;-84
2021/04/07 07:46:55;;;;;;;8.60;5.35;;;3.50;76.00;;;2.73;60.85;94260.50;5029329;28;20215;-83
2021/04/07 07:49:22;;;;;;;6.57;5.53;;;3.50;76.10;;;2.81;60.76;94257.91;5031452;28;20191;-84
2021/04/07 07:51:50;;;;;;;6.95;5.43;;;3.50;76.30;;;2.93;60.44;94266.19;5051627;28;20232;-84
2021/04/07 07:54:23;;;;;;;8.43;5.68;;;3.60;76.40;;;2.96;59.80;94271.03;5051274;28;20204;-84
2021/04/07 07:56:52;;;;;;;10.45;5.55;;;3.60;76.90;;;2.98;59.87;94266.50;5015918;28;20652;-85
2021/04/07 07:59:33;;;;;;;6.30;4.80;;;3.60;76.20;;;3.10;59.98;94277.38;5035326;28;20225;-85
2021/04/07 08:02:00;;;;;;;7.35;4.70;;;3.70;76.10;;;3.17;59.50;94280.94;5032394;28;20226;-86
2021/04/07 08:04:29;;;;;;;4.85;4.40;;;3.70;75.80;;;3.18;60.46;94271.38;5008355;28;20212;-85
2021/04/07 08:06:57;;;;;;;5.47;4.40;;;3.90;76.20;;;3.30;60.18;94282.25;5050127;28;20215;-84
2021/04/07 08:09:24;;;;;;;5.88;4.97;;;3.90;76.20;;;3.33;60.27;94277.53;5033297;28;20651;-85
2021/04/07 08:11:51;;;;;;;7.93;4.97;;;3.90;76.00;;;3.31;59.74;94282.06;5015322;28;20274;-84
2021/04/07 08:14:18;;;;;;;5.80;5.05;;;4.00;76.70;;;3.28;59.24;94282.38;5033657;28;20721;-84
2021/04/07 08:16:47;;;;;;;9.48;5.43;;;4.00;75.60;;;3.26;59.73;94286.94;5045928;28;20262;-84
2021/04/07 08:19:15;;;;;;;8.15;4.80;;;4.10;75.50;;;3.16;59.10;94283.69;5031431;28;20205;-85
2021/04/07 08:21:46;;;;;;;6.05;5.05;;;4.00;75.10;;;3.15;59.67;94290.66;5015702;28;20221;-83
2021/04/07 08:24:14;;;;;;;6.47;4.75;;;4.00;75.20;;;3.10;59.31;94271.38;5035007;28;20207;-84
2021/04/07 08:26:45;;;;;;;6.20;4.70;;;4.00;75.10;;;3.15;58.93;94290.66;5034871;28;20220;-86
2021/04/07 08:29:12;;;;;;;6.65;4.72;;;4.00;75.00;;;3.15;59.52;94275.09;5031054;28;20662;-85
2021/04/07 08:31:39;;;;;;;5.00;4.13;;;4.00;75.00;;;3.15;57.80;94280.28;5033414;28;20248;-85
2021/04/07 08:34:11;;;;;;;5.55;4.10;;;4.00;74.40;;;3.21;58.20;94281.44;5032945;28;20204;-85
2021/04/07 08:36:41;;;;;;;6.60;3.90;;;4.00;74.80;;;3.27;58.65;94262.66;5036486;28;20224;-84
2021/04/07 08:39:17;;;;;;;4.68;3.70;;;4.00;75.00;;;3.48;57.69;94311.38;5062974;28;20187;-85
2021/04/07 08:41:46;;;;;;;4.25;3.35;;;4.00;75.10;;;3.55;57.53;94287.41;5020103;28;20215;-84
2021/04/07 08:44:18;;;;;;;5.50;3.70;;;4.10;74.70;;;3.57;57.65;94298.44;5027804;28;20278;-86
2021/04/07 08:46:51;;;;;;;4.53;3.35;;;4.10;74.80;;;3.55;55.85;94302.97;5034227;28;20274;-86
2021/04/07 08:49:40;;;;;;;3.85;3.40;;;4.20;73.60;;;3.56;56.51;94296.81;5020690;28;20193;-85
2021/04/07 08:52:20;;;;;;;5.15;3.45;;;4.20;73.90;;;3.61;56.24;94297.91;5033077;28;20402;-85
2021/04/07 08:54:51;;;;;;;5.47;3.83;;;4.20;73.80;;;3.68;56.70;94293.69;5016861;28;20643;-86
2021/04/07 08:57:36;;;;;;;4.22;3.30;;;4.20;74.20;;;3.74;57.45;94300.00;5035335;28;20228;-86
2021/04/07 09:00:15;;;;;;;4.65;3.53;;;4.30;74.40;;;3.73;56.96;94295.78;5035133;28;20196;-86
2021/04/07 09:02:58;;;;;;;5.18;3.75;;;4.30;74.30;;;3.70;56.15;94285.75;5036460;28;20219;-86
2021/04/07 09:05:40;;;;;;;3.90;3.60;;;4.40;73.50;;;3.80;55.92;94311.53;5016131;28;20206;-86
2021/04/07 09:08:10;;;;;;;4.15;3.75;;;4.40;73.50;;;3.82;55.26;94309.56;5022793;28;20279;-86
2021/04/07 09:10:46;;;;;;;5.35;3.55;;;4.40;73.10;;;3.84;56.14;94308.44;5015910;28;20199;-85
2021/04/07 09:13:23;;;;;;;5.30;3.90;;;4.40;73.50;;;3.89;57.07;94313.13;5031059;28;20228;-84
2021/04/07 09:16:04;;;;;;;6.53;4.10;;;4.50;73.90;;;3.97;56.39;94322.69;5033402;28;20200;-87
2021/04/07 09:18:43;;;;;;;5.90;4.32;;;4.50;73.90;;;4.00;55.61;94324.94;5016124;28;20213;-87
2021/04/07 09:21:17;;;;;;;5.80;4.45;;;4.60;73.20;;;4.01;56.60;94327.34;5015985;28;20204;-87
2021/04/07 09:23:52;;;;;;;5.85;4.60;;;4.60;73.60;;;4.10;56.69;94348.09;5032783;28;20201;-86
2021/04/07 09:26:24;;;;;;;9.32;4.93;;;4.70;73.70;;;4.14;56.49;94334.63;5049183;28;20200;-86
2021/04/07 09:28:54;;;;;;;4.93;4.43;;;4.70;73.40;;;4.20;56.92;94337.53;5032853;28;20196;-86
2021/04/07 09:31:52;;;;;;;5.57;4.30;;;4.70;73.90;;;4.22;55.55;94338.97;5033197;28;20258;-87
2021/04/07 09:34:19;;;;;;;6.15;4.97;;;4.70;73.20;;;4.28;56.38;94332.31;5027918;28;20263;-85
2021/04/07 09:36:48;;;;;;;6.25;4.60;;;4.80;73.50;;;4.33;54.34;94338.66;5032519;28;20223;-87
2021/04/07 09:39:24;;;;;;;6.45;4.75;;;4.80;72.60;;;4.41;55.00;94330.00;5042481;28;20204;-87
2021/04/07 09:41:52;;;;;;;5.60;5.10;;;4.80;72.90;;;4.55;56.27;94336.28;5052257;28;20210;-86
2021/04/07 09:44:19;;;;;;;4.80;4.30;;;4.90;74.00;;;4.70;55.90;94338.16;5031074;28;20200;-85
2021/04/07 09:46:56;;;;;;;4.20;3.78;;;4.90;74.00;;;4.80;55.33;94333.59;5020114;28;20217;-85
2021/04/07 09:49:32;;;;;;;4.53;3.83;;;5.10;73.10;;;4.88;53.72;94343.13;5032039;28;20226;-85
2021/04/07 09:52:00;;;;;;;3.90;3.50;;;5.20;72.50;;;4.87;52.28;94342.31;5016021;28;20251;-85
2021/04/07 09:54:35;;;;;;;5.13;3.92;;;5.20;71.70;;;4.87;52.03;94339.72;5048666;28;20193;-85
2021/04/07 09:57:12;;;;;;;4.13;3.70;;;5.30;71.30;;;4.82;53.10;94344.59;5016896;28;20248;-87
2021/04/07 09:59:42;;;;;;;3.30;2.95;;;5.30;71.50;;;4.84;53.59;94357.44;5016067;28;20238;-87
2021/04/07 10:02:27;;;;;;;3.30;3.00;;;5.40;71.90;;;4.83;52.80;94348.00;5015934;28;20212;-87
2021/04/07 10:04:55;;;;;;;3.38;2.80;;;5.40;71.60;;;4.87;51.28;94346.69;5026900;28;20208;-87
2021/04/07 10:07:25;;;;;;;3.78;2.92;;;5.40;70.40;;;4.92;53.19;94340.00;5035290;28;20250;-86
2021/04/07 10:09:55;;;;;;;3.53;3.20;;;5.40;71.60;;;5.09;55.00;94358.09;5052042;28;20219;-87
2021/04/07 10:12:25;;;;;;;3.58;3.28;;;5.40;72.60;;;5.19;51.29;94361.28;5035494;28;20239;-87
2021/04/07 10:15:00;;;;;;;6.15;3.60;;;5.50;70.90;;;5.14;52.13;94371.41;5052184;28;20196;-85
2021/04/07 10:17:33;;;;;;;3.40;3.00;;;5.60;70.90;;;5.02;53.24;94372.78;5051892;28;20689;-87
2021/04/07 10:20:14;;;;;;;3.13;2.78;;;5.60;71.20;;;4.77;53.09;94383.28;5052309;28;20233;-86
2021/04/07 10:22:49;;;;;;;2.42;2.20;;;5.50;70.90;;;4.71;52.85;94370.97;5035568;28;20224;-86
2021/04/07 10:25:19;;;;;;;1.95;1.70;;;5.40;71.40;;;4.57;52.16;94368.09;5052116;28;20244;-87
2021/04/07 10:27:46;;;;;;;2.60;2.13;;;5.40;70.80;;;4.42;52.71;94367.16;5036298;28;20231;-87
2021/04/07 10:30:20;;;;;;;3.75;2.10;;;5.30;70.70;;;4.44;53.69;94366.03;5068591;28;20192;-86
2021/04/07 10:32:53;;;;;;;3.00;2.38;;;5.20;70.90;;;4.46;53.66;94360.66;5068587;28;20274;-86
2021/04/07 10:35:31;;;;;;;2.90;2.60;;;5.20;71.00;;;4.47;55.15;94357.91;5051772;28;20202;-87
2021/04/07 10:38:04;;;;;;;3.08;2.70;;;5.20;71.60;;;4.60;54.94;94359.16;5052418;28;20227;-87
2021/04/07 10:40:35;;;;;;;3.88;2.97;;;5.20;71.90;;;4.69;53.73;94365.09;5052334;28;20208;-88